sensor_id;sensor_type;location;lat;lon;timestamp;P1;durP1;ratioP1;P2;durP2;ratioP2
42332;SDS011;27984;51.476;5.702;2023-04-25T00:01:14;11.23;;;3.88;;
42332;SDS011;27984;51.476;5.702;2023-04-25T00:03:40;10.63;;;4.18;;
42332;SDS011;27984;51.476;5.702;2023-04-25T00:06:06;13.65;;;3.67;;
42332;SDS011;27984;51.476;5.702;2023-04-25T00:08:32;10.63;;;3.78;;
42332;SDS011;27984;51.476;5.702;2023-04-25T00:10:58;13.90;;;4.10;;
42332;SDS011;27984;51.476;5.702;2023-04-25T00:13:25;14.18;;;4.70;;
42332;SDS011;27984;51.476;5.702;2023-04-25T00:15:51;11.23;;;4.15;;
42332;SDS011;27984;51.476;5.702;2023-04-25T00:18:18;9.90;;;3.90;;
42332;SDS011;27984;51.476;5.702;2023-04-25T00:20:44;12.25;;;3.85;;
42332;SDS011;27984;51.476;5.702;2023-04-25T00:23:12;15.48;;;4.38;;
42332;SDS011;27984;51.476;5.702;2023-04-25T00:25:42;10.20;;;4.30;;
42332;SDS011;27984;51.476;5.702;2023-04-25T00:28:08;11.82;;;4.20;;
42332;SDS011;27984;51.476;5.702;2023-04-25T00:30:34;11.95;;;4.18;;
42332;SDS011;27984;51.476;5.702;2023-04-25T00:33:00;14.90;;;4.10;;
42332;SDS011;27984;51.476;5.702;2023-04-25T00:35:26;14.15;;;3.85;;
42332;SDS011;27984;51.476;5.702;2023-04-25T00:37:52;11.45;;;3.60;;
42332;SDS011;27984;51.476;5.702;2023-04-25T00:40:19;11.77;;;4.03;;
42332;SDS011;27984;51.476;5.702;2023-04-25T00:42:45;11.52;;;3.63;;
42332;SDS011;27984;51.476;5.702;2023-04-25T00:45:12;16.75;;;4.53;;
42332;SDS011;27984;51.476;5.702;2023-04-25T00:47:39;15.27;;;3.97;;
42332;SDS011;27984;51.476;5.702;2023-04-25T00:50:05;13.50;;;4.28;;
42332;SDS011;27984;51.476;5.702;2023-04-25T00:52:32;14.95;;;4.20;;
42332;SDS011;27984;51.476;5.702;2023-04-25T00:54:58;14.05;;;3.97;;
42332;SDS011;27984;51.476;5.702;2023-04-25T00:57:25;15.05;;;4.15;;
42332;SDS011;27984;51.476;5.702;2023-04-25T00:59:51;12.43;;;3.83;;
42332;SDS011;27984;51.476;5.702;2023-04-25T01:02:18;18.42;;;4.18;;
42332;SDS011;27984;51.476;5.702;2023-04-25T01:04:45;9.68;;;3.70;;
42332;SDS011;27984;51.476;5.702;2023-04-25T01:07:11;12.95;;;4.38;;
42332;SDS011;27984;51.476;5.702;2023-04-25T01:09:38;18.42;;;4.40;;
42332;SDS011;27984;51.476;5.702;2023-04-25T01:12:04;15.93;;;4.35;;
42332;SDS011;27984;51.476;5.702;2023-04-25T01:14:30;13.25;;;4.25;;
42332;SDS011;27984;51.476;5.702;2023-04-25T01:16:56;21.23;;;4.30;;
42332;SDS011;27984;51.476;5.702;2023-04-25T01:19:22;20.05;;;4.28;;
42332;SDS011;27984;51.476;5.702;2023-04-25T01:21:49;18.17;;;4.05;;
42332;SDS011;27984;51.476;5.702;2023-04-25T01:24:15;19.98;;;3.60;;
42332;SDS011;27984;51.476;5.702;2023-04-25T01:26:42;14.52;;;3.95;;
42332;SDS011;27984;51.476;5.702;2023-04-25T01:29:15;16.42;;;4.38;;
42332;SDS011;27984;51.476;5.702;2023-04-25T01:31:41;16.35;;;4.25;;
42332;SDS011;27984;51.476;5.702;2023-04-25T01:34:08;19.00;;;4.55;;
42332;SDS011;27984;51.476;5.702;2023-04-25T01:36:34;16.40;;;5.10;;
42332;SDS011;27984;51.476;5.702;2023-04-25T01:39:00;18.42;;;4.68;;
42332;SDS011;27984;51.476;5.702;2023-04-25T01:41:26;15.50;;;4.53;;
42332;SDS011;27984;51.476;5.702;2023-04-25T01:43:52;15.70;;;5.03;;
42332;SDS011;27984;51.476;5.702;2023-04-25T01:46:19;18.60;;;4.57;;
42332;SDS011;27984;51.476;5.702;2023-04-25T01:48:45;19.98;;;5.50;;
42332;SDS011;27984;51.476;5.702;2023-04-25T01:51:11;19.90;;;5.82;;
42332;SDS011;27984;51.476;5.702;2023-04-25T01:53:37;19.48;;;5.82;;
42332;SDS011;27984;51.476;5.702;2023-04-25T01:56:03;20.45;;;5.70;;
42332;SDS011;27984;51.476;5.702;2023-04-25T01:58:29;16.33;;;5.28;;
42332;SDS011;27984;51.476;5.702;2023-04-25T02:00:55;22.83;;;6.55;;
42332;SDS011;27984;51.476;5.702;2023-04-25T02:03:21;19.33;;;6.68;;
42332;SDS011;27984;51.476;5.702;2023-04-25T02:05:47;27.45;;;6.18;;
42332;SDS011;27984;51.476;5.702;2023-04-25T02:08:13;18.05;;;5.90;;
42332;SDS011;27984;51.476;5.702;2023-04-25T02:10:39;21.60;;;5.18;;
42332;SDS011;27984;51.476;5.702;2023-04-25T02:13:05;23.63;;;5.90;;
42332;SDS011;27984;51.476;5.702;2023-04-25T02:15:31;15.20;;;5.80;;
42332;SDS011;27984;51.476;5.702;2023-04-25T02:17:57;21.63;;;6.15;;
42332;SDS011;27984;51.476;5.702;2023-04-25T02:20:24;17.27;;;5.38;;
42332;SDS011;27984;51.476;5.702;2023-04-25T02:22:51;20.27;;;5.60;;
42332;SDS011;27984;51.476;5.702;2023-04-25T02:25:17;26.25;;;6.38;;
42332;SDS011;27984;51.476;5.702;2023-04-25T02:27:44;24.63;;;5.53;;
42332;SDS011;27984;51.476;5.702;2023-04-25T02:30:10;14.35;;;4.90;;
42332;SDS011;27984;51.476;5.702;2023-04-25T02:32:38;23.02;;;5.57;;
42332;SDS011;27984;51.476;5.702;2023-04-25T02:35:04;19.95;;;4.82;;
42332;SDS011;27984;51.476;5.702;2023-04-25T02:37:31;18.85;;;5.35;;
42332;SDS011;27984;51.476;5.702;2023-04-25T02:39:56;19.45;;;5.32;;
42332;SDS011;27984;51.476;5.702;2023-04-25T02:42:22;18.25;;;5.20;;
42332;SDS011;27984;51.476;5.702;2023-04-25T02:44:48;19.67;;;5.72;;
42332;SDS011;27984;51.476;5.702;2023-04-25T02:47:14;18.73;;;5.70;;
42332;SDS011;27984;51.476;5.702;2023-04-25T02:49:40;19.33;;;5.75;;
42332;SDS011;27984;51.476;5.702;2023-04-25T02:52:06;20.63;;;5.10;;
42332;SDS011;27984;51.476;5.702;2023-04-25T02:54:32;19.83;;;5.32;;
42332;SDS011;27984;51.476;5.702;2023-04-25T02:56:58;22.25;;;6.03;;
42332;SDS011;27984;51.476;5.702;2023-04-25T02:59:25;18.73;;;5.15;;
42332;SDS011;27984;51.476;5.702;2023-04-25T03:01:51;17.02;;;5.53;;
42332;SDS011;27984;51.476;5.702;2023-04-25T03:04:17;18.98;;;5.70;;
42332;SDS011;27984;51.476;5.702;2023-04-25T03:06:44;22.58;;;5.35;;
42332;SDS011;27984;51.476;5.702;2023-04-25T03:09:10;18.98;;;5.63;;
42332;SDS011;27984;51.476;5.702;2023-04-25T03:11:36;15.25;;;5.55;;
42332;SDS011;27984;51.476;5.702;2023-04-25T03:14:02;16.63;;;5.22;;
42332;SDS011;27984;51.476;5.702;2023-04-25T03:16:28;24.02;;;5.68;;
42332;SDS011;27984;51.476;5.702;2023-04-25T03:18:54;18.55;;;5.57;;
42332;SDS011;27984;51.476;5.702;2023-04-25T03:21:20;16.02;;;4.95;;
42332;SDS011;27984;51.476;5.702;2023-04-25T03:23:46;20.70;;;5.22;;
42332;SDS011;27984;51.476;5.702;2023-04-25T03:26:12;18.50;;;5.32;;
42332;SDS011;27984;51.476;5.702;2023-04-25T03:28:38;23.05;;;5.45;;
42332;SDS011;27984;51.476;5.702;2023-04-25T03:31:05;27.98;;;6.00;;
42332;SDS011;27984;51.476;5.702;2023-04-25T03:33:31;22.20;;;6.38;;
42332;SDS011;27984;51.476;5.702;2023-04-25T03:35:57;19.38;;;5.30;;
42332;SDS011;27984;51.476;5.702;2023-04-25T03:38:23;18.75;;;5.00;;
42332;SDS011;27984;51.476;5.702;2023-04-25T03:40:49;21.30;;;5.32;;
42332;SDS011;27984;51.476;5.702;2023-04-25T03:43:15;17.17;;;5.35;;
42332;SDS011;27984;51.476;5.702;2023-04-25T03:45:41;18.20;;;5.63;;
42332;SDS011;27984;51.476;5.702;2023-04-25T03:48:07;17.10;;;5.20;;
42332;SDS011;27984;51.476;5.702;2023-04-25T03:50:34;21.52;;;5.60;;
42332;SDS011;27984;51.476;5.702;2023-04-25T03:53:00;23.90;;;5.38;;
42332;SDS011;27984;51.476;5.702;2023-04-25T03:55:25;25.92;;;5.63;;
42332;SDS011;27984;51.476;5.702;2023-04-25T03:57:51;17.63;;;5.95;;
42332;SDS011;27984;51.476;5.702;2023-04-25T04:00:17;18.23;;;5.50;;
42332;SDS011;27984;51.476;5.702;2023-04-25T04:02:43;22.45;;;5.60;;
42332;SDS011;27984;51.476;5.702;2023-04-25T04:05:09;20.95;;;5.20;;
42332;SDS011;27984;51.476;5.702;2023-04-25T04:07:35;18.08;;;6.20;;
42332;SDS011;27984;51.476;5.702;2023-04-25T04:10:06;20.48;;;5.13;;
42332;SDS011;27984;51.476;5.702;2023-04-25T04:12:32;17.88;;;5.13;;
42332;SDS011;27984;51.476;5.702;2023-04-25T04:14:58;21.90;;;5.32;;
42332;SDS011;27984;51.476;5.702;2023-04-25T04:17:24;18.42;;;5.20;;
42332;SDS011;27984;51.476;5.702;2023-04-25T04:19:50;22.17;;;5.15;;
42332;SDS011;27984;51.476;5.702;2023-04-25T04:22:16;18.63;;;5.30;;
42332;SDS011;27984;51.476;5.702;2023-04-25T04:24:42;16.58;;;5.47;;
42332;SDS011;27984;51.476;5.702;2023-04-25T04:27:09;24.33;;;5.22;;
42332;SDS011;27984;51.476;5.702;2023-04-25T04:29:35;21.40;;;5.57;;
42332;SDS011;27984;51.476;5.702;2023-04-25T04:32:02;16.20;;;4.75;;
42332;SDS011;27984;51.476;5.702;2023-04-25T04:34:28;22.73;;;5.22;;
42332;SDS011;27984;51.476;5.702;2023-04-25T04:36:54;20.75;;;6.03;;
42332;SDS011;27984;51.476;5.702;2023-04-25T04:39:20;19.30;;;5.40;;
42332;SDS011;27984;51.476;5.702;2023-04-25T04:41:46;13.65;;;5.05;;
42332;SDS011;27984;51.476;5.702;2023-04-25T04:44:12;23.55;;;6.10;;
42332;SDS011;27984;51.476;5.702;2023-04-25T04:46:39;22.52;;;6.82;;
42332;SDS011;27984;51.476;5.702;2023-04-25T04:49:07;21.55;;;6.10;;
42332;SDS011;27984;51.476;5.702;2023-04-25T04:51:33;22.50;;;5.65;;
42332;SDS011;27984;51.476;5.702;2023-04-25T04:53:59;19.33;;;5.88;;
42332;SDS011;27984;51.476;5.702;2023-04-25T04:56:27;18.95;;;5.00;;
42332;SDS011;27984;51.476;5.702;2023-04-25T04:58:55;21.50;;;5.20;;
42332;SDS011;27984;51.476;5.702;2023-04-25T05:01:21;21.38;;;5.13;;
42332;SDS011;27984;51.476;5.702;2023-04-25T05:03:47;20.42;;;4.80;;
42332;SDS011;27984;51.476;5.702;2023-04-25T05:06:13;16.73;;;4.57;;
42332;SDS011;27984;51.476;5.702;2023-04-25T05:08:39;25.83;;;5.30;;
42332;SDS011;27984;51.476;5.702;2023-04-25T05:11:06;19.70;;;5.00;;
42332;SDS011;27984;51.476;5.702;2023-04-25T05:13:31;22.23;;;4.70;;
42332;SDS011;27984;51.476;5.702;2023-04-25T05:15:57;24.30;;;4.80;;
42332;SDS011;27984;51.476;5.702;2023-04-25T05:18:23;15.52;;;4.72;;
42332;SDS011;27984;51.476;5.702;2023-04-25T05:20:49;15.88;;;4.55;;
42332;SDS011;27984;51.476;5.702;2023-04-25T05:23:15;19.10;;;4.53;;
42332;SDS011;27984;51.476;5.702;2023-04-25T05:25:41;15.52;;;4.40;;
42332;SDS011;27984;51.476;5.702;2023-04-25T05:28:07;18.10;;;4.53;;
42332;SDS011;27984;51.476;5.702;2023-04-25T05:30:33;16.35;;;4.63;;
42332;SDS011;27984;51.476;5.702;2023-04-25T05:32:59;22.40;;;4.78;;
42332;SDS011;27984;51.476;5.702;2023-04-25T05:35:26;18.35;;;4.40;;
42332;SDS011;27984;51.476;5.702;2023-04-25T05:37:52;24.45;;;4.88;;
42332;SDS011;27984;51.476;5.702;2023-04-25T05:40:18;22.30;;;4.07;;
42332;SDS011;27984;51.476;5.702;2023-04-25T05:42:44;16.52;;;4.40;;
42332;SDS011;27984;51.476;5.702;2023-04-25T05:45:10;22.70;;;4.43;;
42332;SDS011;27984;51.476;5.702;2023-04-25T05:47:36;23.20;;;4.70;;
42332;SDS011;27984;51.476;5.702;2023-04-25T05:50:02;22.08;;;4.80;;
42332;SDS011;27984;51.476;5.702;2023-04-25T05:52:28;27.42;;;5.10;;
42332;SDS011;27984;51.476;5.702;2023-04-25T05:54:54;16.33;;;4.07;;
42332;SDS011;27984;51.476;5.702;2023-04-25T05:57:24;15.88;;;4.30;;
42332;SDS011;27984;51.476;5.702;2023-04-25T05:59:50;14.27;;;4.15;;
42332;SDS011;27984;51.476;5.702;2023-04-25T06:02:16;19.20;;;4.75;;
42332;SDS011;27984;51.476;5.702;2023-04-25T06:04:42;16.75;;;4.38;;
42332;SDS011;27984;51.476;5.702;2023-04-25T06:07:08;13.77;;;4.15;;
42332;SDS011;27984;51.476;5.702;2023-04-25T06:09:34;18.52;;;4.30;;
42332;SDS011;27984;51.476;5.702;2023-04-25T06:12:00;21.75;;;4.38;;
42332;SDS011;27984;51.476;5.702;2023-04-25T06:14:26;15.02;;;4.57;;
42332;SDS011;27984;51.476;5.702;2023-04-25T06:16:52;18.67;;;4.47;;
42332;SDS011;27984;51.476;5.702;2023-04-25T06:19:18;18.13;;;4.10;;
42332;SDS011;27984;51.476;5.702;2023-04-25T06:21:44;16.77;;;3.78;;
42332;SDS011;27984;51.476;5.702;2023-04-25T06:24:10;13.43;;;4.03;;
42332;SDS011;27984;51.476;5.702;2023-04-25T06:26:36;16.27;;;3.78;;
42332;SDS011;27984;51.476;5.702;2023-04-25T06:29:02;14.20;;;4.28;;
42332;SDS011;27984;51.476;5.702;2023-04-25T06:31:28;12.85;;;3.28;;
42332;SDS011;27984;51.476;5.702;2023-04-25T06:33:57;15.38;;;3.33;;
42332;SDS011;27984;51.476;5.702;2023-04-25T06:36:23;13.05;;;2.95;;
42332;SDS011;27984;51.476;5.702;2023-04-25T06:38:52;8.80;;;2.63;;
42332;SDS011;27984;51.476;5.702;2023-04-25T06:41:18;10.82;;;2.75;;
42332;SDS011;27984;51.476;5.702;2023-04-25T06:43:44;10.35;;;2.50;;
42332;SDS011;27984;51.476;5.702;2023-04-25T06:46:10;7.75;;;2.42;;
42332;SDS011;27984;51.476;5.702;2023-04-25T06:48:36;9.45;;;2.47;;
42332;SDS011;27984;51.476;5.702;2023-04-25T06:51:02;11.52;;;2.40;;
42332;SDS011;27984;51.476;5.702;2023-04-25T06:53:28;10.50;;;2.70;;
42332;SDS011;27984;51.476;5.702;2023-04-25T06:55:54;15.43;;;3.45;;
42332;SDS011;27984;51.476;5.702;2023-04-25T06:58:20;11.15;;;3.22;;
42332;SDS011;27984;51.476;5.702;2023-04-25T07:00:47;15.57;;;3.28;;
42332;SDS011;27984;51.476;5.702;2023-04-25T07:03:13;10.30;;;2.90;;
42332;SDS011;27984;51.476;5.702;2023-04-25T07:05:39;10.90;;;3.22;;
42332;SDS011;27984;51.476;5.702;2023-04-25T07:08:05;8.55;;;2.72;;
42332;SDS011;27984;51.476;5.702;2023-04-25T07:10:31;14.65;;;2.85;;
42332;SDS011;27984;51.476;5.702;2023-04-25T07:12:57;8.82;;;2.90;;
42332;SDS011;27984;51.476;5.702;2023-04-25T07:15:23;7.78;;;2.50;;
42332;SDS011;27984;51.476;5.702;2023-04-25T07:17:49;12.73;;;2.28;;
42332;SDS011;27984;51.476;5.702;2023-04-25T07:20:16;9.63;;;1.80;;
42332;SDS011;27984;51.476;5.702;2023-04-25T07:22:42;6.88;;;2.28;;
42332;SDS011;27984;51.476;5.702;2023-04-25T07:25:09;7.35;;;2.28;;
42332;SDS011;27984;51.476;5.702;2023-04-25T07:27:35;9.77;;;1.92;;
42332;SDS011;27984;51.476;5.702;2023-04-25T07:30:01;8.07;;;2.33;;
42332;SDS011;27984;51.476;5.702;2023-04-25T07:32:28;13.60;;;2.75;;
42332;SDS011;27984;51.476;5.702;2023-04-25T07:34:54;10.10;;;2.33;;
42332;SDS011;27984;51.476;5.702;2023-04-25T07:37:20;7.97;;;2.47;;
42332;SDS011;27984;51.476;5.702;2023-04-25T07:39:46;8.20;;;2.33;;
42332;SDS011;27984;51.476;5.702;2023-04-25T07:42:13;8.52;;;2.17;;
42332;SDS011;27984;51.476;5.702;2023-04-25T07:44:39;9.23;;;2.00;;
42332;SDS011;27984;51.476;5.702;2023-04-25T07:47:05;9.75;;;2.00;;
42332;SDS011;27984;51.476;5.702;2023-04-25T07:49:32;12.85;;;2.50;;
42332;SDS011;27984;51.476;5.702;2023-04-25T07:51:59;7.00;;;2.03;;
42332;SDS011;27984;51.476;5.702;2023-04-25T07:54:25;9.02;;;2.08;;
42332;SDS011;27984;51.476;5.702;2023-04-25T07:56:51;7.93;;;1.80;;
42332;SDS011;27984;51.476;5.702;2023-04-25T07:59:17;9.63;;;1.88;;
42332;SDS011;27984;51.476;5.702;2023-04-25T08:01:43;6.25;;;1.75;;
42332;SDS011;27984;51.476;5.702;2023-04-25T08:04:09;9.85;;;1.98;;
42332;SDS011;27984;51.476;5.702;2023-04-25T08:06:35;4.97;;;1.50;;
42332;SDS011;27984;51.476;5.702;2023-04-25T08:09:01;5.75;;;1.55;;
42332;SDS011;27984;51.476;5.702;2023-04-25T08:11:28;4.90;;;1.52;;
42332;SDS011;27984;51.476;5.702;2023-04-25T08:13:53;7.60;;;1.92;;
42332;SDS011;27984;51.476;5.702;2023-04-25T08:16:19;6.63;;;1.95;;
42332;SDS011;27984;51.476;5.702;2023-04-25T08:18:46;6.32;;;1.73;;
42332;SDS011;27984;51.476;5.702;2023-04-25T08:21:11;9.35;;;1.90;;
42332;SDS011;27984;51.476;5.702;2023-04-25T08:23:38;7.15;;;1.95;;
42332;SDS011;27984;51.476;5.702;2023-04-25T08:26:04;7.47;;;2.08;;
42332;SDS011;27984;51.476;5.702;2023-04-25T08:28:30;6.78;;;1.90;;
42332;SDS011;27984;51.476;5.702;2023-04-25T08:30:56;6.63;;;1.95;;
42332;SDS011;27984;51.476;5.702;2023-04-25T08:33:23;5.15;;;1.60;;
42332;SDS011;27984;51.476;5.702;2023-04-25T08:35:49;5.18;;;1.80;;
42332;SDS011;27984;51.476;5.702;2023-04-25T08:38:15;8.15;;;1.67;;
42332;SDS011;27984;51.476;5.702;2023-04-25T08:40:41;6.90;;;1.77;;
42332;SDS011;27984;51.476;5.702;2023-04-25T08:43:09;10.32;;;2.00;;
42332;SDS011;27984;51.476;5.702;2023-04-25T08:45:39;7.28;;;1.60;;
42332;SDS011;27984;51.476;5.702;2023-04-25T08:48:07;9.15;;;1.70;;
42332;SDS011;27984;51.476;5.702;2023-04-25T08:50:37;8.93;;;1.90;;
42332;SDS011;27984;51.476;5.702;2023-04-25T08:53:04;8.48;;;1.92;;
42332;SDS011;27984;51.476;5.702;2023-04-25T08:55:32;13.18;;;2.38;;
42332;SDS011;27984;51.476;5.702;2023-04-25T08:57:59;8.32;;;1.77;;
42332;SDS011;27984;51.476;5.702;2023-04-25T09:00:25;6.75;;;1.85;;
42332;SDS011;27984;51.476;5.702;2023-04-25T09:02:51;7.55;;;1.67;;
42332;SDS011;27984;51.476;5.702;2023-04-25T09:05:18;7.65;;;1.75;;
42332;SDS011;27984;51.476;5.702;2023-04-25T09:07:44;7.43;;;1.70;;
42332;SDS011;27984;51.476;5.702;2023-04-25T09:10:10;10.55;;;1.67;;
42332;SDS011;27984;51.476;5.702;2023-04-25T09:12:36;10.02;;;2.05;;
42332;SDS011;27984;51.476;5.702;2023-04-25T09:15:06;12.68;;;2.00;;
42332;SDS011;27984;51.476;5.702;2023-04-25T09:17:32;7.03;;;1.58;;
42332;SDS011;27984;51.476;5.702;2023-04-25T09:20:08;7.88;;;2.30;;
42332;SDS011;27984;51.476;5.702;2023-04-25T09:22:35;11.60;;;2.30;;
42332;SDS011;27984;51.476;5.702;2023-04-25T09:25:08;10.70;;;2.20;;
42332;SDS011;27984;51.476;5.702;2023-04-25T09:27:34;10.05;;;1.45;;
42332;SDS011;27984;51.476;5.702;2023-04-25T09:30:00;8.45;;;1.88;;
42332;SDS011;27984;51.476;5.702;2023-04-25T09:32:26;6.13;;;1.90;;
42332;SDS011;27984;51.476;5.702;2023-04-25T09:34:55;8.52;;;2.00;;
42332;SDS011;27984;51.476;5.702;2023-04-25T09:37:25;7.15;;;1.67;;
42332;SDS011;27984;51.476;5.702;2023-04-25T09:39:59;6.95;;;1.70;;
42332;SDS011;27984;51.476;5.702;2023-04-25T09:42:28;11.60;;;2.15;;
42332;SDS011;27984;51.476;5.702;2023-04-25T09:44:56;6.63;;;1.65;;
42332;SDS011;27984;51.476;5.702;2023-04-25T09:47:23;7.25;;;1.85;;
42332;SDS011;27984;51.476;5.702;2023-04-25T09:49:49;4.07;;;1.40;;
42332;SDS011;27984;51.476;5.702;2023-04-25T09:52:16;6.65;;;2.03;;
42332;SDS011;27984;51.476;5.702;2023-04-25T09:54:42;7.00;;;1.92;;
42332;SDS011;27984;51.476;5.702;2023-04-25T09:59:36;8.30;;;1.73;;
42332;SDS011;27984;51.476;5.702;2023-04-25T10:02:03;4.38;;;1.50;;
42332;SDS011;27984;51.476;5.702;2023-04-25T10:04:30;3.65;;;1.10;;
42332;SDS011;27984;51.476;5.702;2023-04-25T10:06:58;4.82;;;0.98;;
42332;SDS011;27984;51.476;5.702;2023-04-25T10:09:25;2.10;;;0.90;;
42332;SDS011;27984;51.476;5.702;2023-04-25T10:11:54;2.55;;;0.93;;
42332;SDS011;27984;51.476;5.702;2023-04-25T10:14:20;3.22;;;0.80;;
42332;SDS011;27984;51.476;5.702;2023-04-25T10:16:47;3.85;;;0.95;;
42332;SDS011;27984;51.476;5.702;2023-04-25T10:19:14;5.32;;;1.15;;
42332;SDS011;27984;51.476;5.702;2023-04-25T10:42:08;2.53;;;0.85;;
42332;SDS011;27984;51.476;5.702;2023-04-25T10:46:39;3.58;;;0.80;;
42332;SDS011;27984;51.476;5.702;2023-04-25T10:49:05;2.55;;;0.80;;
42332;SDS011;27984;51.476;5.702;2023-04-25T10:51:34;3.47;;;0.80;;
42332;SDS011;27984;51.476;5.702;2023-04-25T10:54:02;5.75;;;0.82;;
42332;SDS011;27984;51.476;5.702;2023-04-25T11:05:07;3.05;;;1.30;;
42332;SDS011;27984;51.476;5.702;2023-04-25T11:07:34;7.07;;;1.73;;
42332;SDS011;27984;51.476;5.702;2023-04-25T11:10:04;4.13;;;1.40;;
42332;SDS011;27984;51.476;5.702;2023-04-25T11:12:31;4.18;;;1.30;;
42332;SDS011;27984;51.476;5.702;2023-04-25T11:15:04;4.45;;;1.17;;
42332;SDS011;27984;51.476;5.702;2023-04-25T11:17:32;3.90;;;1.13;;
42332;SDS011;27984;51.476;5.702;2023-04-25T11:19:58;4.70;;;0.95;;
42332;SDS011;27984;51.476;5.702;2023-04-25T11:22:24;5.40;;;1.17;;
42332;SDS011;27984;51.476;5.702;2023-04-25T11:24:51;5.72;;;1.40;;
42332;SDS011;27984;51.476;5.702;2023-04-25T11:27:16;5.88;;;1.38;;
42332;SDS011;27984;51.476;5.702;2023-04-25T11:29:42;8.27;;;1.60;;
42332;SDS011;27984;51.476;5.702;2023-04-25T11:32:07;5.05;;;1.70;;
42332;SDS011;27984;51.476;5.702;2023-04-25T11:34:33;4.13;;;1.48;;
42332;SDS011;27984;51.476;5.702;2023-04-25T11:36:59;8.73;;;1.63;;
42332;SDS011;27984;51.476;5.702;2023-04-25T11:39:26;8.88;;;1.63;;
42332;SDS011;27984;51.476;5.702;2023-04-25T11:41:53;5.35;;;1.67;;
42332;SDS011;27984;51.476;5.702;2023-04-25T11:44:20;5.63;;;1.88;;
42332;SDS011;27984;51.476;5.702;2023-04-25T11:46:46;5.72;;;2.05;;
42332;SDS011;27984;51.476;5.702;2023-04-25T11:49:12;2.50;;;1.10;;
42332;SDS011;27984;51.476;5.702;2023-04-25T11:51:39;3.58;;;1.70;;
42332;SDS011;27984;51.476;5.702;2023-04-25T11:54:05;4.22;;;1.50;;
42332;SDS011;27984;51.476;5.702;2023-04-25T11:56:30;4.28;;;1.50;;
42332;SDS011;27984;51.476;5.702;2023-04-25T11:58:57;4.90;;;2.03;;
42332;SDS011;27984;51.476;5.702;2023-04-25T12:01:28;5.45;;;1.50;;
42332;SDS011;27984;51.476;5.702;2023-04-25T12:03:58;6.68;;;1.70;;
42332;SDS011;27984;51.476;5.702;2023-04-25T12:06:30;5.80;;;1.30;;
42332;SDS011;27984;51.476;5.702;2023-04-25T12:08:59;5.95;;;1.52;;
42332;SDS011;27984;51.476;5.702;2023-04-25T12:11:26;4.93;;;1.58;;
42332;SDS011;27984;51.476;5.702;2023-04-25T12:13:51;6.28;;;1.70;;
42332;SDS011;27984;51.476;5.702;2023-04-25T12:16:18;3.90;;;1.50;;
42332;SDS011;27984;51.476;5.702;2023-04-25T12:18:44;7.95;;;1.67;;
42332;SDS011;27984;51.476;5.702;2023-04-25T12:21:09;6.07;;;1.90;;
42332;SDS011;27984;51.476;5.702;2023-04-25T12:23:35;7.40;;;1.70;;
42332;SDS011;27984;51.476;5.702;2023-04-25T12:26:04;4.82;;;1.40;;
42332;SDS011;27984;51.476;5.702;2023-04-25T12:28:31;4.60;;;1.33;;
42332;SDS011;27984;51.476;5.702;2023-04-25T12:33:29;5.22;;;0.90;;
42332;SDS011;27984;51.476;5.702;2023-04-25T12:35:56;2.85;;;1.00;;
42332;SDS011;27984;51.476;5.702;2023-04-25T12:40:51;3.10;;;0.90;;
42332;SDS011;27984;51.476;5.702;2023-04-25T12:43:17;4.95;;;1.17;;
42332;SDS011;27984;51.476;5.702;2023-04-25T12:45:44;2.72;;;0.90;;
42332;SDS011;27984;51.476;5.702;2023-04-25T12:48:10;2.72;;;0.80;;
42332;SDS011;27984;51.476;5.702;2023-04-25T12:50:36;2.35;;;0.80;;
42332;SDS011;27984;51.476;5.702;2023-04-25T12:53:01;4.63;;;0.98;;
42332;SDS011;27984;51.476;5.702;2023-04-25T12:55:27;1.90;;;0.77;;
42332;SDS011;27984;51.476;5.702;2023-04-25T12:57:52;3.90;;;0.88;;
42332;SDS011;27984;51.476;5.702;2023-04-25T13:00:18;3.00;;;0.60;;
42332;SDS011;27984;51.476;5.702;2023-04-25T13:02:44;3.72;;;0.68;;
42332;SDS011;27984;51.476;5.702;2023-04-25T13:05:11;2.20;;;0.70;;
42332;SDS011;27984;51.476;5.702;2023-04-25T13:07:37;4.57;;;1.40;;
42332;SDS011;27984;51.476;5.702;2023-04-25T13:10:03;3.50;;;0.88;;
42332;SDS011;27984;51.476;5.702;2023-04-25T13:12:30;1.95;;;0.80;;
42332;SDS011;27984;51.476;5.702;2023-04-25T13:14:55;1.42;;;0.80;;
42332;SDS011;27984;51.476;5.702;2023-04-25T13:17:21;5.15;;;0.90;;
42332;SDS011;27984;51.476;5.702;2023-04-25T13:19:46;4.25;;;1.00;;
42332;SDS011;27984;51.476;5.702;2023-04-25T13:22:12;2.22;;;0.80;;
42332;SDS011;27984;51.476;5.702;2023-04-25T13:24:40;3.08;;;1.17;;
42332;SDS011;27984;51.476;5.702;2023-04-25T13:27:05;3.00;;;0.88;;
42332;SDS011;27984;51.476;5.702;2023-04-25T13:29:31;4.93;;;1.65;;
42332;SDS011;27984;51.476;5.702;2023-04-25T13:31:59;4.28;;;1.20;;
42332;SDS011;27984;51.476;5.702;2023-04-25T13:34:25;3.95;;;1.15;;
42332;SDS011;27984;51.476;5.702;2023-04-25T13:36:51;5.93;;;1.42;;
42332;SDS011;27984;51.476;5.702;2023-04-25T13:39:16;3.63;;;1.20;;
42332;SDS011;27984;51.476;5.702;2023-04-25T13:41:42;8.95;;;1.50;;
42332;SDS011;27984;51.476;5.702;2023-04-25T13:44:07;4.03;;;1.20;;
42332;SDS011;27984;51.476;5.702;2023-04-25T13:46:33;4.30;;;1.27;;
42332;SDS011;27984;51.476;5.702;2023-04-25T13:48:58;4.65;;;1.05;;
42332;SDS011;27984;51.476;5.702;2023-04-25T13:51:24;4.30;;;1.08;;
42332;SDS011;27984;51.476;5.702;2023-04-25T13:53:51;3.40;;;1.15;;
42332;SDS011;27984;51.476;5.702;2023-04-25T13:56:17;5.82;;;1.27;;
42332;SDS011;27984;51.476;5.702;2023-04-25T13:58:44;4.07;;;1.08;;
42332;SDS011;27984;51.476;5.702;2023-04-25T14:01:10;4.78;;;1.30;;
42332;SDS011;27984;51.476;5.702;2023-04-25T14:03:35;6.00;;;1.05;;
42332;SDS011;27984;51.476;5.702;2023-04-25T14:06:01;3.13;;;1.20;;
42332;SDS011;27984;51.476;5.702;2023-04-25T14:08:27;5.88;;;1.52;;
42332;SDS011;27984;51.476;5.702;2023-04-25T14:10:53;3.88;;;1.10;;
42332;SDS011;27984;51.476;5.702;2023-04-25T14:13:19;3.17;;;1.30;;
42332;SDS011;27984;51.476;5.702;2023-04-25T14:15:44;4.55;;;1.17;;
42332;SDS011;27984;51.476;5.702;2023-04-25T14:18:10;2.33;;;1.10;;
42332;SDS011;27984;51.476;5.702;2023-04-25T14:20:35;7.18;;;1.30;;
42332;SDS011;27984;51.476;5.702;2023-04-25T14:23:01;5.25;;;1.45;;
42332;SDS011;27984;51.476;5.702;2023-04-25T14:25:27;6.88;;;1.30;;
42332;SDS011;27984;51.476;5.702;2023-04-25T14:27:54;5.55;;;1.58;;
42332;SDS011;27984;51.476;5.702;2023-04-25T14:30:20;6.18;;;1.40;;
42332;SDS011;27984;51.476;5.702;2023-04-25T14:32:47;7.72;;;1.65;;
42332;SDS011;27984;51.476;5.702;2023-04-25T14:35:15;6.93;;;1.73;;
42332;SDS011;27984;51.476;5.702;2023-04-25T14:37:41;6.22;;;1.58;;
42332;SDS011;27984;51.476;5.702;2023-04-25T14:40:07;6.82;;;1.50;;
42332;SDS011;27984;51.476;5.702;2023-04-25T14:42:37;6.38;;;1.65;;
42332;SDS011;27984;51.476;5.702;2023-04-25T14:45:04;4.95;;;1.50;;
42332;SDS011;27984;51.476;5.702;2023-04-25T14:47:32;5.35;;;1.40;;
42332;SDS011;27984;51.476;5.702;2023-04-25T14:49:57;7.70;;;1.50;;
42332;SDS011;27984;51.476;5.702;2023-04-25T14:52:23;4.78;;;1.27;;
42332;SDS011;27984;51.476;5.702;2023-04-25T14:54:48;6.45;;;1.42;;
42332;SDS011;27984;51.476;5.702;2023-04-25T14:57:14;8.60;;;1.50;;
42332;SDS011;27984;51.476;5.702;2023-04-25T14:59:40;5.57;;;1.20;;
42332;SDS011;27984;51.476;5.702;2023-04-25T15:02:06;10.63;;;1.35;;
42332;SDS011;27984;51.476;5.702;2023-04-25T15:04:32;4.63;;;1.40;;
42332;SDS011;27984;51.476;5.702;2023-04-25T15:06:57;6.15;;;1.60;;
42332;SDS011;27984;51.476;5.702;2023-04-25T15:09:23;5.35;;;1.30;;
42332;SDS011;27984;51.476;5.702;2023-04-25T15:11:49;5.70;;;1.55;;
42332;SDS011;27984;51.476;5.702;2023-04-25T15:14:16;3.83;;;1.20;;